createdAt,value
2023-02-11T00:00:18.789Z,100274.63
2023-02-11T00:02:47.824Z,100261.00
2023-02-11T00:05:14.860Z,100257.53
2023-02-11T00:07:41.415Z,100263.44
2023-02-11T00:10:08.498Z,100270.19
2023-02-11T00:12:39.606Z,100256.66
2023-02-11T00:15:07.816Z,100267.91
2023-02-11T00:17:34.362Z,100268.50
2023-02-11T00:20:00.944Z,100264.31
2023-02-11T00:22:27.853Z,100265.59
2023-02-11T00:24:54.464Z,100265.50
2023-02-11T00:27:21.018Z,100271.44
2023-02-11T00:29:47.588Z,100266.28
2023-02-11T00:32:14.491Z,100275.56
2023-02-11T00:34:41.116Z,100273.81
2023-02-11T00:37:07.780Z,100283.84
2023-02-11T00:39:34.337Z,100271.13
2023-02-11T00:42:00.873Z,100274.75
2023-02-11T00:44:27.430Z,100273.78
2023-02-11T00:46:54.074Z,100275.72
2023-02-11T00:49:20.742Z,100272.38
2023-02-11T00:51:47.378Z,100273.41
2023-02-11T00:54:13.894Z,100272.69
2023-02-11T00:56:40.420Z,100274.44
2023-02-11T00:59:06.960Z,100271.25
2023-02-11T01:01:34.783Z,100268.00
2023-02-11T01:04:01.518Z,100264.69
2023-02-11T01:06:28.131Z,100259.56
2023-02-11T01:08:54.843Z,100252.72
2023-02-11T01:11:22.432Z,100247.75
2023-02-11T01:13:50.177Z,100244.91
2023-02-11T01:16:19.003Z,100246.63
2023-02-11T01:18:46.422Z,100237.38
2023-02-11T01:21:13.215Z,100240.72
2023-02-11T01:23:39.753Z,100235.56
2023-02-11T01:26:06.334Z,100238.03
2023-02-11T01:28:33.466Z,100232.97
2023-02-11T01:31:01.577Z,100226.94
2023-02-11T01:33:28.469Z,100225.19
2023-02-11T01:35:55.417Z,100226.59
2023-02-11T01:38:25.333Z,100218.84
2023-02-11T01:41:12.840Z,100210.22
2023-02-11T01:43:43.328Z,100212.66
2023-02-11T01:46:30.055Z,100212.66
2023-02-11T01:49:19.398Z,100203.28
2023-02-11T01:51:58.208Z,100205.66
2023-02-11T01:54:47.573Z,100196.94
2023-02-11T01:57:25.140Z,100191.78
2023-02-11T01:59:54.643Z,100188.16
2023-02-11T02:02:27.227Z,100183.25
2023-02-11T02:05:27.754Z,100187.97
2023-02-11T02:08:03.305Z,100182.91
2023-02-11T02:10:31.556Z,100182.75
2023-02-11T02:12:58.158Z,100175.00
2023-02-11T02:15:32.479Z,100175.88
2023-02-11T02:18:14.116Z,100163.91
2023-02-11T02:21:19.803Z,100160.78
2023-02-11T02:23:46.273Z,100161.56
2023-02-11T02:26:19.796Z,100153.97
2023-02-11T02:29:11.162Z,100146.69
2023-02-11T02:31:40.765Z,100154.28
2023-02-11T02:34:20.063Z,100150.78
2023-02-11T02:36:59.157Z,100152.28
2023-02-11T02:39:31.559Z,100151.00
2023-02-11T02:41:58.457Z,100144.25
2023-02-11T02:44:25.403Z,100131.47
2023-02-11T02:46:52.060Z,100127.19
2023-02-11T02:49:21.023Z,100129.66
2023-02-11T02:52:03.244Z,100130.75
2023-02-11T02:54:48.451Z,100144.19
2023-02-11T02:57:24.547Z,100126.41
2023-02-11T02:59:53.935Z,100116.13
2023-02-11T03:02:33.331Z,100114.41
2023-02-11T03:05:06.015Z,100115.25
2023-02-11T03:07:44.752Z,100114.31
2023-02-11T03:10:19.487Z,100118.34
2023-02-11T03:12:48.464Z,100119.91
2023-02-11T03:15:18.341Z,100117.03
2023-02-11T03:17:48.206Z,100116.84
2023-02-11T03:20:18.050Z,100113.56
2023-02-11T03:23:00.130Z,100102.16
2023-02-11T03:25:34.835Z,100106.50
2023-02-11T03:28:17.853Z,100095.19
2023-02-11T03:30:55.300Z,100088.56
2023-02-11T03:33:35.735Z,100088.56
2023-02-11T03:36:18.146Z,100093.06
2023-02-11T03:38:49.016Z,100091.59
2023-02-11T03:41:18.086Z,100091.34
2023-02-11T03:43:50.372Z,100099.50
2023-02-11T03:46:21.171Z,100095.88
2023-02-11T03:48:53.753Z,100086.84
2023-02-11T03:51:22.552Z,100094.31
2023-02-11T03:53:53.137Z,100080.38
2023-02-11T03:56:22.141Z,100082.84
2023-02-11T03:58:49.229Z,100074.13
2023-02-11T04:01:16.042Z,100076.72
2023-02-11T04:03:42.601Z,100069.25
2023-02-11T04:06:09.231Z,100074.41
2023-02-11T04:08:35.768Z,100062.97
2023-02-11T04:11:02.318Z,100076.13
2023-02-11T04:13:28.885Z,100075.16
2023-02-11T04:15:55.679Z,100080.38
2023-02-11T04:18:22.267Z,100077.25
2023-02-11T04:20:50.336Z,100066.91
2023-02-11T04:23:16.947Z,100060.81
2023-02-11T04:25:43.459Z,100059.13
2023-02-11T04:28:10.122Z,100059.94
2023-02-11T04:30:36.779Z,100060.97
2023-02-11T04:33:03.522Z,100053.41
2023-02-11T04:35:30.120Z,100062.78
2023-02-11T04:37:56.779Z,100059.81
2023-02-11T04:40:23.320Z,100063.53
2023-02-11T04:42:50.440Z,100063.63
2023-02-11T04:45:16.963Z,100061.88
2023-02-11T04:47:43.544Z,100063.78
2023-02-11T04:50:10.236Z,100068.16
2023-02-11T04:52:36.762Z,100050.38
2023-02-11T04:55:03.355Z,100051.88
2023-02-11T04:57:29.973Z,100055.28
2023-02-11T04:59:56.546Z,100051.50
2023-02-11T05:02:23.095Z,100038.84
2023-02-11T05:04:49.622Z,100043.91
2023-02-11T05:07:16.328Z,100037.75
2023-02-11T05:09:42.852Z,100039.31
2023-02-11T05:12:09.373Z,100020.69
2023-02-11T05:14:35.927Z,100036.19
2023-02-11T05:17:02.530Z,100036.50
2023-02-11T05:19:29.153Z,100030.59
2023-02-11T05:22:02.640Z,100018.03
2023-02-11T05:24:31.752Z,100011.06
2023-02-11T05:26:58.336Z,100004.44
2023-02-11T05:29:24.870Z,100007.72
2023-02-11T05:31:51.380Z,100017.16
2023-02-11T05:34:17.961Z,100023.09
2023-02-11T05:36:44.477Z,100024.13
2023-02-11T05:39:11.223Z,100012.63
2023-02-11T05:41:38.340Z,100018.41
2023-02-11T05:44:04.970Z,100004.31
2023-02-11T05:46:31.553Z,99999.44
2023-02-11T05:48:58.513Z,100001.31
2023-02-11T05:51:25.441Z,100002.34
2023-02-11T05:53:52.065Z,100000.63
2023-02-11T05:56:18.787Z,99989.03
2023-02-11T05:58:45.414Z,99984.81
2023-02-11T06:01:11.917Z,99974.78
2023-02-11T06:03:38.486Z,99964.75
2023-02-11T06:06:05.490Z,99954.00
2023-02-11T06:08:32.086Z,99961.13
2023-02-11T06:10:58.624Z,99976.44
2023-02-11T06:13:25.175Z,99976.44
2023-02-11T06:16:00.297Z,99985.75
2023-02-11T06:18:26.967Z,99978.81
2023-02-11T06:20:53.737Z,99989.47
2023-02-11T06:23:20.881Z,99990.81
2023-02-11T06:25:47.527Z,99992.41
2023-02-11T06:28:14.101Z,99995.56
2023-02-11T06:30:40.774Z,99982.28
2023-02-11T06:33:07.554Z,99979.69
2023-02-11T06:35:35.431Z,99980.72
2023-02-11T06:38:02.232Z,99987.50
2023-02-11T06:40:28.776Z,99988.44
2023-02-11T06:42:55.484Z,99988.59
2023-02-11T06:45:22.073Z,99990.50
2023-02-11T06:47:51.293Z,99994.00
2023-02-11T06:50:17.970Z,100000.31
2023-02-11T06:52:44.619Z,99997.91
2023-02-11T06:55:12.998Z,100001.72
2023-02-11T06:57:39.555Z,100000.03
2023-02-11T07:00:06.661Z,100000.59
2023-02-11T07:02:33.199Z,100001.63
2023-02-11T07:04:59.731Z,100010.22
2023-02-11T07:07:27.751Z,100001.19
2023-02-11T07:09:54.358Z,99993.91
2023-02-11T07:12:20.936Z,99993.91
2023-02-11T07:14:47.518Z,99994.84
2023-02-11T07:17:14.678Z,99988.03
2023-02-11T07:19:41.510Z,99996.28
2023-02-11T07:22:08.007Z,100003.16
2023-02-11T07:24:34.534Z,99992.94
2023-02-11T07:27:01.008Z,99991.66
2023-02-11T07:29:27.642Z,99990.34
2023-02-11T07:31:54.406Z,99995.72
2023-02-11T07:34:21.208Z,99992.53
2023-02-11T07:36:49.078Z,100002.25
2023-02-11T07:39:15.930Z,100002.97
2023-02-11T07:41:43.106Z,100000.22
2023-02-11T07:44:12.376Z,99997.97
2023-02-11T07:46:43.175Z,99989.78
2023-02-11T07:49:09.727Z,99978.91
2023-02-11T07:51:36.345Z,99991.81
2023-02-11T07:54:02.949Z,99994.56
2023-02-11T07:56:30.267Z,99994.56
2023-02-11T07:59:01.060Z,99993.19
2023-02-11T08:01:28.860Z,99973.84
2023-02-11T08:03:57.518Z,99970.69
2023-02-11T08:06:26.325Z,99968.38
2023-02-11T08:08:53.016Z,99968.19
2023-02-11T08:11:25.161Z,99960.97
2023-02-11T08:13:52.674Z,99962.88
2023-02-11T08:16:27.997Z,99966.34
2023-02-11T08:18:57.844Z,99961.66
2023-02-11T08:21:25.217Z,99970.06
2023-02-11T08:23:52.009Z,99968.31
2023-02-11T08:26:21.159Z,99972.94
2023-02-11T08:28:49.548Z,99965.59
2023-02-11T08:31:24.552Z,99961.31
2023-02-11T08:33:51.723Z,99966.72
2023-02-11T08:36:23.810Z,99961.59
2023-02-11T08:38:50.423Z,99960.78
2023-02-11T08:41:17.982Z,99940.66
2023-02-11T08:43:45.496Z,99951.88
2023-02-11T08:46:15.106Z,99939.19
2023-02-11T08:48:42.284Z,99942.91
2023-02-11T08:51:23.304Z,99944.53
2023-02-11T08:53:50.515Z,99941.28
2023-02-11T08:56:18.805Z,99950.09
2023-02-11T08:58:45.626Z,99960.47
2023-02-11T09:01:20.110Z,99964.84
2023-02-11T09:03:48.725Z,99964.28
2023-02-11T09:06:17.427Z,99957.97
2023-02-11T09:08:46.618Z,99956.53
2023-02-11T09:11:13.916Z,99966.19
2023-02-11T09:13:42.417Z,99974.94
2023-02-11T09:16:15.773Z,99976.16
2023-02-11T09:18:42.360Z,99980.66
2023-02-11T09:21:09.428Z,99967.41
2023-02-11T09:23:36.279Z,99964.19
2023-02-11T09:26:09.199Z,99963.56
2023-02-11T09:28:36.488Z,99963.63
2023-02-11T09:31:08.674Z,99957.28
2023-02-11T09:33:36.388Z,99942.88
2023-02-11T09:36:05.465Z,99946.03
2023-02-11T09:38:32.942Z,99941.06
2023-02-11T09:40:59.702Z,99945.63
2023-02-11T09:43:46.948Z,99942.59
2023-02-11T09:46:15.953Z,99948.91
2023-02-11T09:48:45.799Z,99948.91
2023-02-11T09:51:55.805Z,99919.34
2023-02-11T09:54:36.680Z,99915.72
2023-02-11T09:57:03.830Z,99926.47
2023-02-11T09:59:30.348Z,99930.59
2023-02-11T10:02:02.388Z,99924.88
2023-02-11T10:04:53.411Z,99932.09
2023-02-11T10:07:43.782Z,99917.97
2023-02-11T10:10:19.760Z,99920.78
2023-02-11T10:13:06.495Z,99919.34
2023-02-11T10:15:52.205Z,99900.66
2023-02-11T10:18:27.934Z,99897.19
2023-02-11T10:21:08.811Z,99899.22
2023-02-11T10:23:39.413Z,99888.19
2023-02-11T10:26:13.712Z,99879.78
2023-02-11T10:28:43.941Z,99869.84
2023-02-11T10:31:18.678Z,99868.34
2023-02-11T10:34:05.558Z,99874.44
2023-02-11T10:36:38.800Z,99862.81
2023-02-11T10:39:20.541Z,99859.63
2023-02-11T10:41:57.912Z,99859.00
2023-02-11T10:44:31.088Z,99854.41
2023-02-11T10:47:01.890Z,99856.41
2023-02-11T10:49:39.457Z,99862.75
2023-02-11T10:52:17.914Z,99865.41
2023-02-11T10:54:57.482Z,99876.75
2023-02-11T10:57:46.864Z,99876.72
2023-02-11T11:00:42.809Z,99865.41
2023-02-11T11:03:19.946Z,99852.06
2023-02-11T11:06:01.216Z,99857.25
2023-02-11T11:08:50.379Z,99851.47
2023-02-11T11:11:21.946Z,99849.88
2023-02-11T11:14:01.201Z,99856.00
2023-02-11T11:16:35.955Z,99841.50
2023-02-11T11:19:08.359Z,99835.03
2023-02-11T11:21:40.883Z,99825.28
2023-02-11T11:24:17.987Z,99816.94
2023-02-11T11:26:56.970Z,99811.19
2023-02-11T11:29:27.768Z,99801.06
2023-02-11T11:31:57.872Z,99793.53
2023-02-11T11:34:32.422Z,99781.69
2023-02-11T11:37:01.946Z,99778.50
2023-02-11T11:39:33.185Z,99783.03
2023-02-11T11:42:00.884Z,99786.72
2023-02-11T11:44:29.570Z,99789.50
2023-02-11T11:47:23.253Z,99776.56
2023-02-11T11:50:18.963Z,99776.09
2023-02-11T11:52:54.946Z,99768.41
2023-02-11T11:55:42.615Z,99764.19
2023-02-11T11:58:18.796Z,99758.22
2023-02-11T12:01:14.447Z,99753.19
2023-02-11T12:04:02.672Z,99739.69
2023-02-11T12:07:03.298Z,99751.84
2023-02-11T12:09:52.159Z,99768.16
2023-02-11T12:12:21.556Z,99766.63
2023-02-11T12:14:53.108Z,99761.59
2023-02-11T12:17:52.440Z,99758.38
2023-02-11T12:20:26.398Z,99750.75
2023-02-11T12:23:04.977Z,99751.00
2023-02-11T12:25:44.208Z,99745.06
2023-02-11T12:28:34.701Z,99731.56
2023-02-11T12:31:24.725Z,99726.47
2023-02-11T12:34:18.951Z,99706.91
2023-02-11T12:37:02.933Z,99684.94
2023-02-11T12:39:47.974Z,99680.88
2023-02-11T12:43:00.270Z,99673.22
2023-02-11T12:45:42.672Z,99675.84
2023-02-11T12:48:15.379Z,99680.88
2023-02-11T12:51:20.718Z,99695.41
2023-02-11T12:54:17.364Z,99719.22
2023-02-11T12:56:51.132Z,99725.19
2023-02-11T12:59:34.681Z,99734.63
2023-02-11T13:02:09.788Z,99744.88
2023-02-11T13:04:41.682Z,99747.41
2023-02-11T13:07:31.648Z,99731.16
2023-02-11T13:10:21.820Z,99744.88
2023-02-11T13:13:10.116Z,99740.66
2023-02-11T13:15:37.650Z,99731.25
2023-02-11T13:18:14.036Z,99739.78
2023-02-11T13:20:52.867Z,99750.88
2023-02-11T13:23:26.036Z,99741.44
2023-02-11T13:26:10.032Z,99741.44
2023-02-11T13:29:03.746Z,99734.56
2023-02-11T13:31:30.815Z,99744.00
2023-02-11T13:33:57.464Z,99737.19
2023-02-11T13:36:30.217Z,99731.97
2023-02-11T13:38:58.609Z,99738.84
2023-02-11T13:41:29.465Z,99736.38
2023-02-11T13:44:00.216Z,99731.38
2023-02-11T13:46:30.207Z,99725.31
2023-02-11T13:48:57.857Z,99723.69
2023-02-11T13:51:35.147Z,99721.97
2023-02-11T13:54:02.796Z,99728.81
2023-02-11T13:56:33.651Z,99727.00
2023-02-11T13:59:02.854Z,99715.81
2023-02-11T14:02:06.528Z,99705.59
2023-02-11T14:04:52.213Z,99702.97
2023-02-11T14:07:40.403Z,99723.59
2023-02-11T14:10:41.736Z,99714.06
2023-02-11T14:13:36.748Z,99707.28
2023-02-11T14:16:08.051Z,99709.88
2023-02-11T14:18:51.970Z,99701.38
2023-02-11T14:21:27.945Z,99705.56
2023-02-11T14:24:14.542Z,99703.63
2023-02-11T14:27:24.052Z,99681.44
2023-02-11T14:29:51.146Z,99682.44
2023-02-11T14:32:23.406Z,99681.56
2023-02-11T14:35:15.441Z,99669.59
2023-02-11T14:38:07.492Z,99664.53
2023-02-11T14:40:51.373Z,99654.25
2023-02-11T14:43:26.775Z,99651.75
2023-02-11T14:45:56.756Z,99657.59
2023-02-11T14:48:35.069Z,99649.78
2023-02-11T14:51:13.672Z,99642.91
2023-02-11T14:53:45.956Z,99629.28
2023-02-11T14:56:34.840Z,99619.06
2023-02-11T14:59:02.790Z,99613.09
2023-02-11T15:01:33.981Z,99616.47
2023-02-11T15:04:03.020Z,99631.75
2023-02-11T15:06:34.011Z,99647.19
2023-02-11T15:09:02.859Z,99647.94
2023-02-11T15:11:34.596Z,99653.03
2023-02-11T15:14:11.161Z,99644.47
2023-02-11T15:16:46.263Z,99633.28
2023-02-11T15:19:29.032Z,99653.75
2023-02-11T15:21:56.992Z,99647.75
2023-02-11T15:24:25.714Z,99633.22
2023-02-11T15:27:15.631Z,99619.53
2023-02-11T15:30:00.114Z,99633.16
2023-02-11T15:32:45.966Z,99632.31
2023-02-11T15:35:30.612Z,99625.47
2023-02-11T15:37:58.988Z,99628.00
2023-02-11T15:40:28.984Z,99632.22
2023-02-11T15:42:59.066Z,99638.25
2023-02-11T15:45:38.245Z,99636.53
2023-02-11T15:48:20.514Z,99648.47
2023-02-11T15:50:59.093Z,99642.44
2023-02-11T15:53:28.963Z,99647.63
2023-02-11T15:56:30.726Z,99652.00
2023-02-11T15:59:02.786Z,99633.22
2023-02-11T16:01:47.871Z,99640.06
2023-02-11T16:04:29.686Z,99641.81
2023-02-11T16:06:56.842Z,99636.59
2023-02-11T16:09:36.408Z,99651.06
2023-02-11T16:12:22.460Z,99639.97
2023-02-11T16:14:49.079Z,99626.38
2023-02-11T16:17:18.546Z,99624.66
2023-02-11T16:19:47.882Z,99627.19
2023-02-11T16:22:25.289Z,99633.13
2023-02-11T16:24:54.125Z,99636.53
2023-02-11T16:27:20.618Z,99636.53
2023-02-11T16:29:49.148Z,99626.28
2023-02-11T16:32:19.299Z,99626.25
2023-02-11T16:34:46.351Z,99629.63
2023-02-11T16:37:13.007Z,99641.56
2023-02-11T16:39:39.623Z,99644.97
2023-02-11T16:42:08.976Z,99645.81
2023-02-11T16:44:35.729Z,99650.03
2023-02-11T16:47:04.325Z,99650.06
2023-02-11T16:49:34.986Z,99655.16
2023-02-11T16:52:06.235Z,99652.59
2023-02-11T16:54:32.869Z,99657.66
2023-02-11T16:56:59.711Z,99655.16
2023-02-11T16:59:26.259Z,99649.16
2023-02-11T17:01:54.834Z,99665.38
2023-02-11T17:04:25.631Z,99653.38
2023-02-11T17:06:52.372Z,99643.13
2023-02-11T17:09:21.727Z,99651.63
2023-02-11T17:11:48.856Z,99653.38
2023-02-11T17:14:15.606Z,99659.28
2023-02-11T17:16:43.409Z,99667.88
2023-02-11T17:19:13.347Z,99675.56
2023-02-11T17:21:43.855Z,99670.44
2023-02-11T17:24:11.378Z,99673.78
2023-02-11T17:26:39.068Z,99683.19
2023-02-11T17:29:07.567Z,99672.09
2023-02-11T17:31:35.330Z,99675.47
2023-02-11T17:34:02.602Z,99676.38
2023-02-11T17:36:31.373Z,99671.28
2023-02-11T17:38:58.896Z,99666.13
2023-02-11T17:41:26.109Z,99655.06
2023-02-11T17:43:53.227Z,99649.06
2023-02-11T17:46:20.058Z,99654.19
2023-02-11T17:48:46.937Z,99648.19
2023-02-11T17:51:33.895Z,99643.88
2023-02-11T17:54:05.016Z,99648.13
2023-02-11T17:56:33.713Z,99644.69
2023-02-11T17:59:02.509Z,99642.16
2023-02-11T18:01:30.989Z,99643.88
2023-02-11T18:03:57.892Z,99647.28
2023-02-11T18:06:25.152Z,99653.31
2023-02-11T18:08:52.268Z,99651.56
2023-02-11T18:11:19.015Z,99657.53
2023-02-11T18:13:45.647Z,99661.81
2023-02-11T18:16:15.750Z,99667.75
2023-02-11T18:18:46.687Z,99656.56
2023-02-11T18:21:16.257Z,99664.38
2023-02-11T18:23:43.070Z,99664.38
2023-02-11T18:26:14.431Z,99659.28
2023-02-11T18:28:43.282Z,99655.00
2023-02-11T18:31:12.678Z,99653.25
2023-02-11T18:33:40.901Z,99647.28
2023-02-11T18:36:13.261Z,99641.34
2023-02-11T18:38:40.471Z,99637.03
2023-02-11T18:41:09.906Z,99639.63
2023-02-11T18:43:40.230Z,99634.50
2023-02-11T18:46:13.077Z,99639.63
2023-02-11T18:48:40.386Z,99644.63
2023-02-11T18:51:12.715Z,99653.28
2023-02-11T18:53:39.771Z,99654.13
2023-02-11T18:56:12.265Z,99651.63
2023-02-11T18:58:39.461Z,99649.88
2023-02-11T19:01:22.302Z,99656.69
2023-02-11T19:03:49.095Z,99655.84
2023-02-11T19:06:23.615Z,99648.13
2023-02-11T19:08:50.566Z,99652.34
2023-02-11T19:11:19.871Z,99654.94
2023-02-11T19:13:48.136Z,99663.47
2023-02-11T19:16:16.854Z,99662.63
2023-02-11T19:18:43.552Z,99653.31
2023-02-11T19:21:11.283Z,99649.94
2023-02-11T19:23:38.402Z,99651.63
2023-02-11T19:26:06.546Z,99655.06
2023-02-11T19:28:34.248Z,99645.75
2023-02-11T19:31:08.896Z,99660.31
2023-02-11T19:33:36.164Z,99665.44
2023-02-11T19:36:08.359Z,99659.56
2023-02-11T19:38:36.212Z,99676.56
2023-02-11T19:41:02.883Z,99670.53
2023-02-11T19:43:29.533Z,99667.25
2023-02-11T19:45:57.359Z,99676.63
2023-02-11T19:48:25.208Z,99679.34
2023-02-11T19:50:51.801Z,99669.22
2023-02-11T19:53:18.490Z,99672.72
2023-02-11T19:55:45.048Z,99672.72
2023-02-11T19:58:11.776Z,99664.22
2023-02-11T20:00:39.296Z,99661.63
2023-02-11T20:03:06.100Z,99677.00
2023-02-11T20:05:32.928Z,99666.78
2023-02-11T20:07:59.479Z,99668.50
2023-02-11T20:10:26.708Z,99666.00
2023-02-11T20:12:53.245Z,99660.94
2023-02-11T20:15:19.733Z,99665.28
2023-02-11T20:17:46.238Z,99668.78
2023-02-11T20:20:13.005Z,99668.03
2023-02-11T20:22:39.592Z,99668.91
2023-02-11T20:25:06.773Z,99684.31
2023-02-11T20:27:33.448Z,99666.41
2023-02-11T20:30:00.061Z,99678.41
2023-02-11T20:32:26.652Z,99670.72
2023-02-11T20:34:53.370Z,99669.81
2023-02-11T20:37:19.979Z,99678.41
2023-02-11T20:39:46.504Z,99673.28
2023-02-11T20:42:14.373Z,99665.53
2023-02-11T20:44:41.295Z,99658.69
2023-02-11T20:47:07.836Z,99656.13
2023-02-11T20:49:34.421Z,99658.75
2023-02-11T20:52:01.001Z,99661.31
2023-02-11T20:54:27.832Z,99657.81
2023-02-11T20:56:55.421Z,99657.84
2023-02-11T20:59:22.782Z,99657.06
2023-02-11T21:01:53.484Z,99658.75
2023-02-11T21:04:29.530Z,99647.72
2023-02-11T21:06:59.687Z,99647.72
2023-02-11T21:09:28.969Z,99643.47
2023-02-11T21:11:55.928Z,99649.50
2023-02-11T21:14:24.131Z,99658.09
2023-02-11T21:16:51.218Z,99654.63
2023-02-11T21:19:18.516Z,99665.72
2023-02-11T21:21:45.590Z,99664.97
2023-02-11T21:24:12.774Z,99664.03
2023-02-11T21:26:39.403Z,99666.59
2023-02-11T21:29:07.318Z,99670.91
2023-02-11T21:31:34.724Z,99666.59
2023-02-11T21:34:01.727Z,99682.88
2023-02-11T21:36:29.341Z,99670.06
2023-02-11T21:38:56.321Z,99675.22
2023-02-11T21:41:23.186Z,99675.19
2023-02-11T21:43:51.046Z,99677.75
2023-02-11T21:46:18.952Z,99682.09
2023-02-11T21:48:45.858Z,99678.69
2023-02-11T21:51:18.426Z,99680.38
2023-02-11T21:53:45.444Z,99683.78
2023-02-11T21:56:17.406Z,99692.31
2023-02-11T21:58:45.330Z,99694.06
2023-02-11T22:01:14.309Z,99700.91
2023-02-11T22:03:41.262Z,99689.81
2023-02-11T22:06:13.006Z,99702.69
2023-02-11T22:08:40.234Z,99703.56
2023-02-11T22:11:09.481Z,99699.31
2023-02-11T22:13:37.254Z,99693.28
2023-02-11T22:16:07.399Z,99692.47
2023-02-11T22:18:34.172Z,99701.16
2023-02-11T22:21:06.245Z,99703.63
2023-02-11T22:23:33.613Z,99708.78
2023-02-11T22:26:07.590Z,99706.19
2023-02-11T22:28:35.630Z,99717.28
2023-02-11T22:31:02.500Z,99724.09
2023-02-11T22:33:29.179Z,99724.97
2023-02-11T22:36:07.237Z,99733.50
2023-02-11T22:38:34.685Z,99731.78
2023-02-11T22:41:05.930Z,99738.63
2023-02-11T22:43:32.563Z,99726.69
2023-02-11T22:46:03.085Z,99733.56
2023-02-11T22:48:29.821Z,99735.31
2023-02-11T22:50:56.629Z,99732.78
2023-02-11T22:53:25.543Z,99722.50
2023-02-11T22:55:52.426Z,99727.63
2023-02-11T22:58:19.102Z,99724.13
2023-02-11T23:00:46.198Z,99720.69
2023-02-11T23:03:13.565Z,99720.75
2023-02-11T23:05:42.041Z,99710.50
2023-02-11T23:08:10.783Z,99710.56
2023-02-11T23:10:39.290Z,99709.59
2023-02-11T23:13:07.422Z,99711.34
2023-02-11T23:15:34.455Z,99701.97
2023-02-11T23:18:01.091Z,99687.44
2023-02-11T23:20:27.710Z,99681.44
2023-02-11T23:22:54.388Z,99683.19
2023-02-11T23:25:21.065Z,99676.31
2023-02-11T23:27:47.828Z,99676.28
2023-02-11T23:30:14.736Z,99669.47
2023-02-11T23:32:41.246Z,99672.03
2023-02-11T23:35:08.082Z,99685.66
2023-02-11T23:37:34.762Z,99686.44
2023-02-11T23:40:01.260Z,99687.22
2023-02-11T23:42:29.205Z,99698.28
2023-02-11T23:44:55.900Z,99697.56
2023-02-11T23:47:22.540Z,99694.84
2023-02-11T23:49:49.095Z,99702.53
2023-02-11T23:52:15.637Z,99693.97
2023-02-11T23:54:43.444Z,99698.31
2023-02-11T23:57:10.109Z,99707.66
2023-02-11T23:59:36.672Z,99707.53
